sensor_id;sensor_type;location;lat;lon;timestamp;temperature;humidity
9802;DHT22;4940;50.900;4.672;2022-07-21T00:02:06;19.60;99.90
9802;DHT22;4940;50.900;4.672;2022-07-21T00:04:33;19.70;99.90
9802;DHT22;4940;50.900;4.672;2022-07-21T00:07:00;19.60;99.90
9802;DHT22;4940;50.900;4.672;2022-07-21T00:09:28;19.60;99.90
9802;DHT22;4940;50.900;4.672;2022-07-21T00:11:55;19.60;99.90
9802;DHT22;4940;50.900;4.672;2022-07-21T00:14:22;19.60;99.90
9802;DHT22;4940;50.900;4.672;2022-07-21T00:16:49;19.60;99.90
9802;DHT22;4940;50.900;4.672;2022-07-21T00:19:18;19.50;99.90
9802;DHT22;4940;50.900;4.672;2022-07-21T00:21:45;19.50;99.90
9802;DHT22;4940;50.900;4.672;2022-07-21T00:24:12;19.60;99.90
9802;DHT22;4940;50.900;4.672;2022-07-21T00:26:40;19.60;99.90
9802;DHT22;4940;50.900;4.672;2022-07-21T00:29:08;19.50;99.90
9802;DHT22;4940;50.900;4.672;2022-07-21T00:31:35;19.60;99.90
9802;DHT22;4940;50.900;4.672;2022-07-21T00:34:02;19.50;99.90
9802;DHT22;4940;50.900;4.672;2022-07-21T00:36:31;19.60;99.90
9802;DHT22;4940;50.900;4.672;2022-07-21T00:38:58;19.60;99.90
9802;DHT22;4940;50.900;4.672;2022-07-21T00:41:25;19.60;99.90
9802;DHT22;4940;50.900;4.672;2022-07-21T00:43:52;19.60;99.90
9802;DHT22;4940;50.900;4.672;2022-07-21T00:46:20;19.60;99.90
9802;DHT22;4940;50.900;4.672;2022-07-21T00:48:47;19.60;99.90
9802;DHT22;4940;50.900;4.672;2022-07-21T00:51:14;19.60;99.90
9802;DHT22;4940;50.900;4.672;2022-07-21T00:53:43;19.60;99.90
9802;DHT22;4940;50.900;4.672;2022-07-21T00:56:11;19.60;99.90
9802;DHT22;4940;50.900;4.672;2022-07-21T00:58:39;19.60;99.90
9802;DHT22;4940;50.900;4.672;2022-07-21T01:01:07;19.70;99.90
9802;DHT22;4940;50.900;4.672;2022-07-21T01:03:34;19.60;99.90
9802;DHT22;4940;50.900;4.672;2022-07-21T01:06:03;19.70;99.90
9802;DHT22;4940;50.900;4.672;2022-07-21T01:08:31;19.70;99.90
9802;DHT22;4940;50.900;4.672;2022-07-21T01:11:00;19.70;99.90
9802;DHT22;4940;50.900;4.672;2022-07-21T01:13:27;19.70;99.90
9802;DHT22;4940;50.900;4.672;2022-07-21T01:15:55;19.70;99.90
9802;DHT22;4940;50.900;4.672;2022-07-21T01:18:22;19.70;99.90
9802;DHT22;4940;50.900;4.672;2022-07-21T01:20:52;19.70;99.90
9802;DHT22;4940;50.900;4.672;2022-07-21T01:23:21;19.70;99.90
9802;DHT22;4940;50.900;4.672;2022-07-21T01:25:49;19.60;99.90
9802;DHT22;4940;50.900;4.672;2022-07-21T01:28:16;19.60;99.90
9802;DHT22;4940;50.900;4.672;2022-07-21T01:30:43;19.60;99.90
9802;DHT22;4940;50.900;4.672;2022-07-21T01:33:11;19.50;99.90
9802;DHT22;4940;50.900;4.672;2022-07-21T01:35:38;19.50;99.90
9802;DHT22;4940;50.900;4.672;2022-07-21T01:38:06;19.50;99.90
9802;DHT22;4940;50.900;4.672;2022-07-21T01:40:58;19.50;99.90
9802;DHT22;4940;50.900;4.672;2022-07-21T01:43:42;19.50;99.90
9802;DHT22;4940;50.900;4.672;2022-07-21T01:46:11;19.40;99.90
9802;DHT22;4940;50.900;4.672;2022-07-21T01:48:41;19.40;99.90
9802;DHT22;4940;50.900;4.672;2022-07-21T01:51:09;19.40;99.90
9802;DHT22;4940;50.900;4.672;2022-07-21T01:53:36;19.50;99.90
9802;DHT22;4940;50.900;4.672;2022-07-21T01:58:33;19.30;99.90
9802;DHT22;4940;50.900;4.672;2022-07-21T02:01:00;19.30;99.90
9802;DHT22;4940;50.900;4.672;2022-07-21T02:03:27;19.30;99.90
9802;DHT22;4940;50.900;4.672;2022-07-21T02:06:00;19.30;99.90
9802;DHT22;4940;50.900;4.672;2022-07-21T02:08:28;19.30;99.90
9802;DHT22;4940;50.900;4.672;2022-07-21T02:10:55;19.30;99.90
9802;DHT22;4940;50.900;4.672;2022-07-21T02:13:23;19.30;99.90
9802;DHT22;4940;50.900;4.672;2022-07-21T02:15:51;19.40;99.90
9802;DHT22;4940;50.900;4.672;2022-07-21T02:18:18;19.40;99.90
9802;DHT22;4940;50.900;4.672;2022-07-21T02:20:46;19.40;99.90
9802;DHT22;4940;50.900;4.672;2022-07-21T02:23:14;19.40;99.90
9802;DHT22;4940;50.900;4.672;2022-07-21T02:25:42;19.40;99.90
9802;DHT22;4940;50.900;4.672;2022-07-21T02:30:38;19.40;99.90
9802;DHT22;4940;50.900;4.672;2022-07-21T02:33:05;19.40;99.90
9802;DHT22;4940;50.900;4.672;2022-07-21T02:35:33;19.30;99.90
9802;DHT22;4940;50.900;4.672;2022-07-21T02:38:00;19.40;99.90
9802;DHT22;4940;50.900;4.672;2022-07-21T02:40:27;19.40;99.90
9802;DHT22;4940;50.900;4.672;2022-07-21T02:42:55;19.40;99.90
9802;DHT22;4940;50.900;4.672;2022-07-21T02:45:22;19.40;99.90
9802;DHT22;4940;50.900;4.672;2022-07-21T02:47:55;19.10;99.90
9802;DHT22;4940;50.900;4.672;2022-07-21T02:50:24;19.30;99.90
9802;DHT22;4940;50.900;4.672;2022-07-21T02:52:54;19.30;99.90
9802;DHT22;4940;50.900;4.672;2022-07-21T02:55:21;19.30;99.90
9802;DHT22;4940;50.900;4.672;2022-07-21T02:57:48;19.30;99.90
9802;DHT22;4940;50.900;4.672;2022-07-21T03:00:16;19.30;99.90
9802;DHT22;4940;50.900;4.672;2022-07-21T03:02:43;19.30;99.90
9802;DHT22;4940;50.900;4.672;2022-07-21T03:05:11;19.30;99.90
9802;DHT22;4940;50.900;4.672;2022-07-21T03:07:38;19.30;99.90
9802;DHT22;4940;50.900;4.672;2022-07-21T03:10:06;19.30;99.90
9802;DHT22;4940;50.900;4.672;2022-07-21T03:15:01;19.30;99.90
9802;DHT22;4940;50.900;4.672;2022-07-21T03:17:28;19.30;99.90
9802;DHT22;4940;50.900;4.672;2022-07-21T03:19:56;19.40;99.90
9802;DHT22;4940;50.900;4.672;2022-07-21T03:22:24;19.20;99.90
9802;DHT22;4940;50.900;4.672;2022-07-21T03:24:51;19.30;99.90
9802;DHT22;4940;50.900;4.672;2022-07-21T03:27:19;19.20;99.90
9802;DHT22;4940;50.900;4.672;2022-07-21T03:29:46;19.30;99.90
9802;DHT22;4940;50.900;4.672;2022-07-21T03:32:13;19.20;99.90
9802;DHT22;4940;50.900;4.672;2022-07-21T03:34:40;19.20;99.90
9802;DHT22;4940;50.900;4.672;2022-07-21T03:37:07;19.20;99.90
9802;DHT22;4940;50.900;4.672;2022-07-21T03:39:36;19.20;99.90
9802;DHT22;4940;50.900;4.672;2022-07-21T03:42:04;19.20;99.90
9802;DHT22;4940;50.900;4.672;2022-07-21T03:44:31;19.20;99.90
9802;DHT22;4940;50.900;4.672;2022-07-21T03:46:58;19.30;99.90
9802;DHT22;4940;50.900;4.672;2022-07-21T03:49:25;19.10;99.90
9802;DHT22;4940;50.900;4.672;2022-07-21T03:51:53;19.10;99.90
9802;DHT22;4940;50.900;4.672;2022-07-21T03:54:20;19.10;99.90
9802;DHT22;4940;50.900;4.672;2022-07-21T03:56:48;19.10;99.90
9802;DHT22;4940;50.900;4.672;2022-07-21T04:01:44;19.10;99.90
9802;DHT22;4940;50.900;4.672;2022-07-21T04:04:11;19.00;99.90
9802;DHT22;4940;50.900;4.672;2022-07-21T04:06:38;19.10;99.90
9802;DHT22;4940;50.900;4.672;2022-07-21T04:09:06;19.00;99.90
9802;DHT22;4940;50.900;4.672;2022-07-21T04:11:33;19.10;99.90
9802;DHT22;4940;50.900;4.672;2022-07-21T04:14:01;19.10;99.90
9802;DHT22;4940;50.900;4.672;2022-07-21T04:18:56;19.20;99.90
9802;DHT22;4940;50.900;4.672;2022-07-21T04:21:23;19.20;99.90
9802;DHT22;4940;50.900;4.672;2022-07-21T04:23:50;19.20;99.90
9802;DHT22;4940;50.900;4.672;2022-07-21T04:26:17;19.20;99.90
9802;DHT22;4940;50.900;4.672;2022-07-21T04:28:45;19.30;99.90
9802;DHT22;4940;50.900;4.672;2022-07-21T04:31:13;19.30;99.90
9802;DHT22;4940;50.900;4.672;2022-07-21T04:33:40;19.30;99.90
9802;DHT22;4940;50.900;4.672;2022-07-21T04:36:08;19.30;99.90
9802;DHT22;4940;50.900;4.672;2022-07-21T04:38:38;19.40;99.90
9802;DHT22;4940;50.900;4.672;2022-07-21T04:41:05;19.40;99.90
9802;DHT22;4940;50.900;4.672;2022-07-21T04:43:32;19.40;99.90
9802;DHT22;4940;50.900;4.672;2022-07-21T04:46:00;19.50;99.90
9802;DHT22;4940;50.900;4.672;2022-07-21T04:48:28;19.50;99.90
9802;DHT22;4940;50.900;4.672;2022-07-21T04:50:56;19.50;99.90
9802;DHT22;4940;50.900;4.672;2022-07-21T04:53:23;19.50;99.90
9802;DHT22;4940;50.900;4.672;2022-07-21T04:55:50;19.50;99.90
9802;DHT22;4940;50.900;4.672;2022-07-21T04:58:17;19.50;99.90
9802;DHT22;4940;50.900;4.672;2022-07-21T05:00:45;19.60;99.90
9802;DHT22;4940;50.900;4.672;2022-07-21T05:03:12;19.60;99.90
9802;DHT22;4940;50.900;4.672;2022-07-21T05:05:41;19.60;99.90
9802;DHT22;4940;50.900;4.672;2022-07-21T05:08:08;19.60;99.90
9802;DHT22;4940;50.900;4.672;2022-07-21T05:10:35;19.80;99.90
9802;DHT22;4940;50.900;4.672;2022-07-21T05:13:02;19.50;99.90
9802;DHT22;4940;50.900;4.672;2022-07-21T05:15:30;19.70;99.90
9802;DHT22;4940;50.900;4.672;2022-07-21T05:17:57;19.70;99.90
9802;DHT22;4940;50.900;4.672;2022-07-21T05:20:24;19.80;99.90
9802;DHT22;4940;50.900;4.672;2022-07-21T05:22:53;19.80;99.90
9802;DHT22;4940;50.900;4.672;2022-07-21T05:25:20;19.80;99.90
9802;DHT22;4940;50.900;4.672;2022-07-21T05:27:47;19.90;99.90
9802;DHT22;4940;50.900;4.672;2022-07-21T05:30:15;19.80;99.90
9802;DHT22;4940;50.900;4.672;2022-07-21T05:32:42;19.90;99.90
9802;DHT22;4940;50.900;4.672;2022-07-21T05:35:09;20.10;99.90
9802;DHT22;4940;50.900;4.672;2022-07-21T05:37:38;20.00;99.90
9802;DHT22;4940;50.900;4.672;2022-07-21T05:40:08;20.00;99.90
9802;DHT22;4940;50.900;4.672;2022-07-21T05:42:35;20.10;99.90
9802;DHT22;4940;50.900;4.672;2022-07-21T05:45:03;20.30;99.90
9802;DHT22;4940;50.900;4.672;2022-07-21T05:47:30;20.30;99.90
9802;DHT22;4940;50.900;4.672;2022-07-21T05:49:58;20.40;99.90
9802;DHT22;4940;50.900;4.672;2022-07-21T05:52:25;20.50;99.90
9802;DHT22;4940;50.900;4.672;2022-07-21T05:54:53;20.50;99.90
9802;DHT22;4940;50.900;4.672;2022-07-21T05:57:21;20.60;99.90
9802;DHT22;4940;50.900;4.672;2022-07-21T05:59:49;20.70;99.90
9802;DHT22;4940;50.900;4.672;2022-07-21T06:02:16;20.70;99.90
9802;DHT22;4940;50.900;4.672;2022-07-21T06:09:38;20.60;99.90
9802;DHT22;4940;50.900;4.672;2022-07-21T06:12:05;20.60;99.90
9802;DHT22;4940;50.900;4.672;2022-07-21T06:17:01;20.60;99.90
9802;DHT22;4940;50.900;4.672;2022-07-21T06:19:28;20.60;99.90
9802;DHT22;4940;50.900;4.672;2022-07-21T06:21:56;20.40;99.90
9802;DHT22;4940;50.900;4.672;2022-07-21T06:24:25;20.40;99.90
9802;DHT22;4940;50.900;4.672;2022-07-21T06:26:52;20.30;99.90
9802;DHT22;4940;50.900;4.672;2022-07-21T06:29:21;20.30;99.90
9802;DHT22;4940;50.900;4.672;2022-07-21T06:31:50;20.20;99.90
9802;DHT22;4940;50.900;4.672;2022-07-21T06:34:17;20.20;99.90
9802;DHT22;4940;50.900;4.672;2022-07-21T06:36:44;20.20;99.90
9802;DHT22;4940;50.900;4.672;2022-07-21T06:39:12;20.10;99.90
9802;DHT22;4940;50.900;4.672;2022-07-21T06:41:39;20.00;99.90
9802;DHT22;4940;50.900;4.672;2022-07-21T06:44:06;20.00;99.90
9802;DHT22;4940;50.900;4.672;2022-07-21T06:46:34;20.00;99.90
9802;DHT22;4940;50.900;4.672;2022-07-21T06:49:03;19.90;99.90
9802;DHT22;4940;50.900;4.672;2022-07-21T06:51:30;19.90;99.90
9802;DHT22;4940;50.900;4.672;2022-07-21T06:53:57;19.90;99.90
9802;DHT22;4940;50.900;4.672;2022-07-21T06:56:25;19.80;99.90
9802;DHT22;4940;50.900;4.672;2022-07-21T06:58:52;19.80;99.90
9802;DHT22;4940;50.900;4.672;2022-07-21T07:01:19;19.80;99.90
9802;DHT22;4940;50.900;4.672;2022-07-21T07:03:47;19.80;99.90
9802;DHT22;4940;50.900;4.672;2022-07-21T07:06:15;19.80;99.90
9802;DHT22;4940;50.900;4.672;2022-07-21T07:08:43;19.80;99.90
9802;DHT22;4940;50.900;4.672;2022-07-21T07:11:10;19.80;99.90
9802;DHT22;4940;50.900;4.672;2022-07-21T07:13:37;19.80;99.90
9802;DHT22;4940;50.900;4.672;2022-07-21T07:16:05;19.80;99.90
9802;DHT22;4940;50.900;4.672;2022-07-21T07:18:32;19.80;99.90
9802;DHT22;4940;50.900;4.672;2022-07-21T07:20:59;19.70;99.90
9802;DHT22;4940;50.900;4.672;2022-07-21T07:23:28;19.70;99.90
9802;DHT22;4940;50.900;4.672;2022-07-21T07:25:55;19.70;99.90
9802;DHT22;4940;50.900;4.672;2022-07-21T07:28:22;19.60;99.90
9802;DHT22;4940;50.900;4.672;2022-07-21T07:30:50;19.60;99.90
9802;DHT22;4940;50.900;4.672;2022-07-21T07:33:17;19.60;99.90
9802;DHT22;4940;50.900;4.672;2022-07-21T07:35:46;19.60;99.90
9802;DHT22;4940;50.900;4.672;2022-07-21T07:38:13;19.50;99.90
9802;DHT22;4940;50.900;4.672;2022-07-21T07:40:42;19.50;99.90
9802;DHT22;4940;50.900;4.672;2022-07-21T07:43:09;20.80;99.90
9802;DHT22;4940;50.900;4.672;2022-07-21T07:45:37;19.50;99.90
9802;DHT22;4940;50.900;4.672;2022-07-21T07:48:05;19.50;99.90
9802;DHT22;4940;50.900;4.672;2022-07-21T07:50:32;19.40;99.90
9802;DHT22;4940;50.900;4.672;2022-07-21T07:53:00;19.40;99.90
9802;DHT22;4940;50.900;4.672;2022-07-21T07:55:27;19.40;99.90
9802;DHT22;4940;50.900;4.672;2022-07-21T07:57:56;19.30;99.90
9802;DHT22;4940;50.900;4.672;2022-07-21T08:00:23;19.30;99.90
9802;DHT22;4940;50.900;4.672;2022-07-21T08:02:51;19.30;99.90
9802;DHT22;4940;50.900;4.672;2022-07-21T08:05:18;19.30;99.90
9802;DHT22;4940;50.900;4.672;2022-07-21T08:07:45;19.30;99.90
9802;DHT22;4940;50.900;4.672;2022-07-21T08:10:13;19.30;99.90
9802;DHT22;4940;50.900;4.672;2022-07-21T08:12:41;19.30;99.90
9802;DHT22;4940;50.900;4.672;2022-07-21T08:15:10;19.30;99.90
9802;DHT22;4940;50.900;4.672;2022-07-21T08:17:37;19.30;99.90
9802;DHT22;4940;50.900;4.672;2022-07-21T08:20:05;19.30;99.90
9802;DHT22;4940;50.900;4.672;2022-07-21T08:22:33;19.30;99.90
9802;DHT22;4940;50.900;4.672;2022-07-21T08:25:00;19.30;99.90
9802;DHT22;4940;50.900;4.672;2022-07-21T08:27:27;19.30;99.90
9802;DHT22;4940;50.900;4.672;2022-07-21T08:29:55;19.40;99.90
9802;DHT22;4940;50.900;4.672;2022-07-21T08:32:23;19.30;99.90
9802;DHT22;4940;50.900;4.672;2022-07-21T08:34:50;19.40;99.90
9802;DHT22;4940;50.900;4.672;2022-07-21T08:37:20;19.50;99.90
9802;DHT22;4940;50.900;4.672;2022-07-21T08:39:48;19.60;99.90
9802;DHT22;4940;50.900;4.672;2022-07-21T08:42:15;19.50;99.90
9802;DHT22;4940;50.900;4.672;2022-07-21T08:44:43;19.50;99.90
9802;DHT22;4940;50.900;4.672;2022-07-21T08:47:10;19.50;99.90
9802;DHT22;4940;50.900;4.672;2022-07-21T08:49:39;19.50;99.90
9802;DHT22;4940;50.900;4.672;2022-07-21T08:52:07;19.50;99.90
9802;DHT22;4940;50.900;4.672;2022-07-21T08:57:02;19.50;99.90
9802;DHT22;4940;50.900;4.672;2022-07-21T09:01:57;19.50;99.90
9802;DHT22;4940;50.900;4.672;2022-07-21T09:04:26;19.50;99.90
9802;DHT22;4940;50.900;4.672;2022-07-21T09:06:56;19.40;99.90
9802;DHT22;4940;50.900;4.672;2022-07-21T09:09:24;19.50;99.90
9802;DHT22;4940;50.900;4.672;2022-07-21T09:11:51;19.40;99.90
9802;DHT22;4940;50.900;4.672;2022-07-21T09:14:21;19.40;99.90
9802;DHT22;4940;50.900;4.672;2022-07-21T09:16:49;19.40;99.90
9802;DHT22;4940;50.900;4.672;2022-07-21T09:19:20;19.40;99.90
9802;DHT22;4940;50.900;4.672;2022-07-21T09:21:48;19.40;99.90
9802;DHT22;4940;50.900;4.672;2022-07-21T09:24:20;19.50;99.90
9802;DHT22;4940;50.900;4.672;2022-07-21T09:27:06;19.50;99.90
9802;DHT22;4940;50.900;4.672;2022-07-21T09:29:40;19.50;99.90
9802;DHT22;4940;50.900;4.672;2022-07-21T09:32:25;19.40;99.90
9802;DHT22;4940;50.900;4.672;2022-07-21T09:34:53;19.40;99.90
9802;DHT22;4940;50.900;4.672;2022-07-21T09:37:21;19.40;99.90
9802;DHT22;4940;50.900;4.672;2022-07-21T09:39:53;19.40;99.90
9802;DHT22;4940;50.900;4.672;2022-07-21T09:42:23;19.40;99.90
9802;DHT22;4940;50.900;4.672;2022-07-21T09:44:52;19.40;99.90
9802;DHT22;4940;50.900;4.672;2022-07-21T09:47:20;19.40;99.90
9802;DHT22;4940;50.900;4.672;2022-07-21T09:49:48;19.40;99.90
9802;DHT22;4940;50.900;4.672;2022-07-21T09:52:30;19.60;99.90
9802;DHT22;4940;50.900;4.672;2022-07-21T09:54:59;19.30;99.90
9802;DHT22;4940;50.900;4.672;2022-07-21T09:57:27;19.30;99.90
9802;DHT22;4940;50.900;4.672;2022-07-21T09:59:55;19.30;99.90
9802;DHT22;4940;50.900;4.672;2022-07-21T10:02:24;19.30;99.90
9802;DHT22;4940;50.900;4.672;2022-07-21T10:04:57;19.30;99.90
9802;DHT22;4940;50.900;4.672;2022-07-21T10:07:25;19.30;99.90
9802;DHT22;4940;50.900;4.672;2022-07-21T10:09:53;19.30;99.90
9802;DHT22;4940;50.900;4.672;2022-07-21T10:12:24;19.30;99.90
9802;DHT22;4940;50.900;4.672;2022-07-21T10:14:51;19.30;99.90
9802;DHT22;4940;50.900;4.672;2022-07-21T10:17:20;19.30;99.90
9802;DHT22;4940;50.900;4.672;2022-07-21T10:19:53;19.30;99.90
9802;DHT22;4940;50.900;4.672;2022-07-21T10:22:30;19.30;99.90
9802;DHT22;4940;50.900;4.672;2022-07-21T10:24:58;19.40;99.90
9802;DHT22;4940;50.900;4.672;2022-07-21T10:27:28;19.40;99.90
9802;DHT22;4940;50.900;4.672;2022-07-21T10:29:57;19.40;99.90
9802;DHT22;4940;50.900;4.672;2022-07-21T10:32:28;19.40;99.90
9802;DHT22;4940;50.900;4.672;2022-07-21T10:34:57;19.50;99.90
9802;DHT22;4940;50.900;4.672;2022-07-21T10:37:43;19.50;99.90
9802;DHT22;4940;50.900;4.672;2022-07-21T10:40:38;19.70;99.90
9802;DHT22;4940;50.900;4.672;2022-07-21T10:43:42;19.50;99.90
9802;DHT22;4940;50.900;4.672;2022-07-21T10:46:34;19.60;99.90
9802;DHT22;4940;50.900;4.672;2022-07-21T10:49:03;19.70;99.90
9802;DHT22;4940;50.900;4.672;2022-07-21T10:51:36;19.70;99.90
9802;DHT22;4940;50.900;4.672;2022-07-21T10:54:24;19.80;99.90
9802;DHT22;4940;50.900;4.672;2022-07-21T10:57:27;19.90;99.90
9802;DHT22;4940;50.900;4.672;2022-07-21T11:00:22;19.90;99.90
9802;DHT22;4940;50.900;4.672;2022-07-21T11:02:52;19.90;99.90
9802;DHT22;4940;50.900;4.672;2022-07-21T11:05:20;20.00;99.90
9802;DHT22;4940;50.900;4.672;2022-07-21T11:08:13;20.10;99.90
9802;DHT22;4940;50.900;4.672;2022-07-21T11:10:42;20.30;99.90
9802;DHT22;4940;50.900;4.672;2022-07-21T11:13:10;20.40;99.90
9802;DHT22;4940;50.900;4.672;2022-07-21T11:15:59;20.50;99.90
9802;DHT22;4940;50.900;4.672;2022-07-21T11:18:28;20.60;99.90
9802;DHT22;4940;50.900;4.672;2022-07-21T11:21:11;20.70;99.90
9802;DHT22;4940;50.900;4.672;2022-07-21T11:23:41;20.80;99.90
9802;DHT22;4940;50.900;4.672;2022-07-21T11:26:10;20.90;99.90
9802;DHT22;4940;50.900;4.672;2022-07-21T11:28:37;20.90;99.90
9802;DHT22;4940;50.900;4.672;2022-07-21T11:31:12;21.00;99.90
9802;DHT22;4940;50.900;4.672;2022-07-21T11:33:41;21.10;99.90
9802;DHT22;4940;50.900;4.672;2022-07-21T11:36:08;21.10;99.90
9802;DHT22;4940;50.900;4.672;2022-07-21T11:38:35;21.10;99.90
9802;DHT22;4940;50.900;4.672;2022-07-21T11:41:16;21.10;99.90
9802;DHT22;4940;50.900;4.672;2022-07-21T11:43:45;21.10;99.90
9802;DHT22;4940;50.900;4.672;2022-07-21T11:46:14;21.00;99.90
9802;DHT22;4940;50.900;4.672;2022-07-21T11:48:41;21.00;99.90
9802;DHT22;4940;50.900;4.672;2022-07-21T11:51:08;19.80;99.90
9802;DHT22;4940;50.900;4.672;2022-07-21T11:53:36;20.60;99.90
9802;DHT22;4940;50.900;4.672;2022-07-21T11:56:13;20.50;99.90
9802;DHT22;4940;50.900;4.672;2022-07-21T11:58:41;20.50;99.90
9802;DHT22;4940;50.900;4.672;2022-07-21T12:01:09;20.40;99.90
9802;DHT22;4940;50.900;4.672;2022-07-21T12:03:49;20.30;99.90
9802;DHT22;4940;50.900;4.672;2022-07-21T12:06:17;20.20;99.90
9802;DHT22;4940;50.900;4.672;2022-07-21T12:08:45;20.10;99.90
9802;DHT22;4940;50.900;4.672;2022-07-21T12:11:12;20.10;99.90
9802;DHT22;4940;50.900;4.672;2022-07-21T12:13:52;20.10;99.90
9802;DHT22;4940;50.900;4.672;2022-07-21T12:16:20;20.10;99.90
9802;DHT22;4940;50.900;4.672;2022-07-21T12:18:49;20.20;99.90
9802;DHT22;4940;50.900;4.672;2022-07-21T12:21:16;20.30;99.90
9802;DHT22;4940;50.900;4.672;2022-07-21T12:23:43;20.40;99.90
9802;DHT22;4940;50.900;4.672;2022-07-21T12:26:20;20.40;99.90
9802;DHT22;4940;50.900;4.672;2022-07-21T12:28:49;20.50;99.90
9802;DHT22;4940;50.900;4.672;2022-07-21T12:31:20;20.50;99.90
9802;DHT22;4940;50.900;4.672;2022-07-21T12:33:49;20.50;99.90
9802;DHT22;4940;50.900;4.672;2022-07-21T12:36:19;20.50;99.90
9802;DHT22;4940;50.900;4.672;2022-07-21T12:38:49;20.50;99.90
9802;DHT22;4940;50.900;4.672;2022-07-21T12:41:17;20.50;99.90
9802;DHT22;4940;50.900;4.672;2022-07-21T12:43:53;20.40;99.90
9802;DHT22;4940;50.900;4.672;2022-07-21T12:46:28;20.40;99.90
9802;DHT22;4940;50.900;4.672;2022-07-21T12:49:05;20.40;99.90
9802;DHT22;4940;50.900;4.672;2022-07-21T12:51:32;20.40;99.90
9802;DHT22;4940;50.900;4.672;2022-07-21T12:53:59;20.30;99.90
9802;DHT22;4940;50.900;4.672;2022-07-21T12:56:28;20.40;99.90
9802;DHT22;4940;50.900;4.672;2022-07-21T12:58:57;20.40;99.90
9802;DHT22;4940;50.900;4.672;2022-07-21T13:01:26;20.40;99.90
9802;DHT22;4940;50.900;4.672;2022-07-21T13:03:53;20.50;99.90
9802;DHT22;4940;50.900;4.672;2022-07-21T13:06:22;20.40;99.90
9802;DHT22;4940;50.900;4.672;2022-07-21T13:08:49;20.30;99.90
9802;DHT22;4940;50.900;4.672;2022-07-21T13:11:19;20.30;99.90
9802;DHT22;4940;50.900;4.672;2022-07-21T13:13:47;20.30;99.90
9802;DHT22;4940;50.900;4.672;2022-07-21T13:16:15;20.30;99.90
9802;DHT22;4940;50.900;4.672;2022-07-21T13:18:42;20.30;99.90
9802;DHT22;4940;50.900;4.672;2022-07-21T13:21:10;20.30;99.90
9802;DHT22;4940;50.900;4.672;2022-07-21T13:23:39;20.30;99.90
9802;DHT22;4940;50.900;4.672;2022-07-21T13:26:07;20.40;99.90
9802;DHT22;4940;50.900;4.672;2022-07-21T13:28:35;20.40;99.90
9802;DHT22;4940;50.900;4.672;2022-07-21T13:31:06;20.50;99.90
9802;DHT22;4940;50.900;4.672;2022-07-21T13:33:33;20.50;99.90
9802;DHT22;4940;50.900;4.672;2022-07-21T13:36:02;23.20;99.90
9802;DHT22;4940;50.900;4.672;2022-07-21T13:38:29;20.80;99.90
9802;DHT22;4940;50.900;4.672;2022-07-21T13:40:58;21.00;99.90
9802;DHT22;4940;50.900;4.672;2022-07-21T13:43:25;20.90;99.90
9802;DHT22;4940;50.900;4.672;2022-07-21T13:45:53;20.90;99.90
9802;DHT22;4940;50.900;4.672;2022-07-21T13:48:20;20.90;99.90
9802;DHT22;4940;50.900;4.672;2022-07-21T13:50:47;20.90;99.90
9802;DHT22;4940;50.900;4.672;2022-07-21T13:53:14;20.90;99.90
9802;DHT22;4940;50.900;4.672;2022-07-21T13:55:42;20.80;99.90
9802;DHT22;4940;50.900;4.672;2022-07-21T13:58:11;20.70;99.90
9802;DHT22;4940;50.900;4.672;2022-07-21T14:00:38;20.70;99.90
9802;DHT22;4940;50.900;4.672;2022-07-21T14:03:05;20.70;99.90
9802;DHT22;4940;50.900;4.672;2022-07-21T14:05:33;20.60;99.90
9802;DHT22;4940;50.900;4.672;2022-07-21T14:08:00;20.70;99.90
9802;DHT22;4940;50.900;4.672;2022-07-21T14:10:28;20.50;99.90
9802;DHT22;4940;50.900;4.672;2022-07-21T14:12:55;20.50;99.90
9802;DHT22;4940;50.900;4.672;2022-07-21T14:15:23;20.60;99.90
9802;DHT22;4940;50.900;4.672;2022-07-21T14:17:51;20.60;99.90
9802;DHT22;4940;50.900;4.672;2022-07-21T14:20:18;20.60;99.90
9802;DHT22;4940;50.900;4.672;2022-07-21T14:22:45;20.60;99.90
9802;DHT22;4940;50.900;4.672;2022-07-21T14:25:13;20.70;99.90
9802;DHT22;4940;50.900;4.672;2022-07-21T14:27:46;20.70;99.90
9802;DHT22;4940;50.900;4.672;2022-07-21T14:30:14;20.80;99.90
9802;DHT22;4940;50.900;4.672;2022-07-21T14:32:43;20.80;99.90
9802;DHT22;4940;50.900;4.672;2022-07-21T14:35:10;20.80;99.90
9802;DHT22;4940;50.900;4.672;2022-07-21T14:37:41;21.00;99.90
9802;DHT22;4940;50.900;4.672;2022-07-21T14:40:09;21.10;99.90
9802;DHT22;4940;50.900;4.672;2022-07-21T14:42:37;20.80;99.90
9802;DHT22;4940;50.900;4.672;2022-07-21T14:45:05;21.20;99.90
9802;DHT22;4940;50.900;4.672;2022-07-21T14:47:33;21.20;99.90
9802;DHT22;4940;50.900;4.672;2022-07-21T14:50:01;21.20;99.90
9802;DHT22;4940;50.900;4.672;2022-07-21T14:52:28;21.20;99.90
9802;DHT22;4940;50.900;4.672;2022-07-21T14:54:56;21.20;99.90
9802;DHT22;4940;50.900;4.672;2022-07-21T14:57:23;21.30;99.90
9802;DHT22;4940;50.900;4.672;2022-07-21T14:59:50;21.30;99.90
9802;DHT22;4940;50.900;4.672;2022-07-21T15:02:18;21.30;99.90
9802;DHT22;4940;50.900;4.672;2022-07-21T15:04:45;21.30;99.90
9802;DHT22;4940;50.900;4.672;2022-07-21T15:07:14;21.10;99.90
9802;DHT22;4940;50.900;4.672;2022-07-21T15:09:41;21.20;99.90
9802;DHT22;4940;50.900;4.672;2022-07-21T15:12:09;21.30;99.90
9802;DHT22;4940;50.900;4.672;2022-07-21T15:14:37;21.30;99.90
9802;DHT22;4940;50.900;4.672;2022-07-21T15:17:04;21.30;99.90
9802;DHT22;4940;50.900;4.672;2022-07-21T15:19:32;21.30;99.90
9802;DHT22;4940;50.900;4.672;2022-07-21T15:21:59;21.40;99.90
9802;DHT22;4940;50.900;4.672;2022-07-21T15:24:28;21.50;99.90
9802;DHT22;4940;50.900;4.672;2022-07-21T15:26:56;21.50;99.90
9802;DHT22;4940;50.900;4.672;2022-07-21T15:29:23;21.60;99.90
9802;DHT22;4940;50.900;4.672;2022-07-21T15:31:50;21.70;99.90
9802;DHT22;4940;50.900;4.672;2022-07-21T15:34:18;21.90;99.90
9802;DHT22;4940;50.900;4.672;2022-07-21T15:36:45;21.80;99.90
9802;DHT22;4940;50.900;4.672;2022-07-21T15:39:12;21.80;99.90
9802;DHT22;4940;50.900;4.672;2022-07-21T15:41:41;21.90;99.90
9802;DHT22;4940;50.900;4.672;2022-07-21T15:44:08;21.90;99.90
9802;DHT22;4940;50.900;4.672;2022-07-21T15:46:35;21.90;99.90
9802;DHT22;4940;50.900;4.672;2022-07-21T15:49:05;21.90;99.90
9802;DHT22;4940;50.900;4.672;2022-07-21T15:51:32;22.00;99.90
9802;DHT22;4940;50.900;4.672;2022-07-21T15:53:59;21.90;99.90
9802;DHT22;4940;50.900;4.672;2022-07-21T15:56:26;22.00;99.90
9802;DHT22;4940;50.900;4.672;2022-07-21T15:58:55;21.80;99.90
9802;DHT22;4940;50.900;4.672;2022-07-21T16:01:40;21.80;99.90
9802;DHT22;4940;50.900;4.672;2022-07-21T16:04:07;21.70;99.90
9802;DHT22;4940;50.900;4.672;2022-07-21T16:06:35;21.60;99.90
9802;DHT22;4940;50.900;4.672;2022-07-21T16:09:03;21.60;99.90
9802;DHT22;4940;50.900;4.672;2022-07-21T16:11:30;21.70;99.90
9802;DHT22;4940;50.900;4.672;2022-07-21T16:13:59;21.60;99.90
9802;DHT22;4940;50.900;4.672;2022-07-21T16:16:26;21.80;99.90
9802;DHT22;4940;50.900;4.672;2022-07-21T16:18:55;21.90;99.90
9802;DHT22;4940;50.900;4.672;2022-07-21T16:21:22;21.90;99.90
9802;DHT22;4940;50.900;4.672;2022-07-21T16:23:49;22.10;99.90
9802;DHT22;4940;50.900;4.672;2022-07-21T16:26:16;22.00;99.90
9802;DHT22;4940;50.900;4.672;2022-07-21T16:28:43;22.00;99.90
9802;DHT22;4940;50.900;4.672;2022-07-21T16:31:12;22.10;99.90
9802;DHT22;4940;50.900;4.672;2022-07-21T16:33:39;22.10;99.90
9802;DHT22;4940;50.900;4.672;2022-07-21T16:36:07;22.10;99.90
9802;DHT22;4940;50.900;4.672;2022-07-21T16:38:34;22.00;99.90